Time;durP1;ratioP1;P1;durP2;ratioP2;P2;SDS_P1;SDS_P2;PMS_P1;PMS_P2;Temp;Humidity;BMP_temperature;BMP_pressure;BME280_temperature;BME280_humidity;BME280_pressure;Samples;Min_cycle;Max_cycle;Signal;HPM_P1;HPM_P2
2023/12/12 00:02:52;;;;;;;7.57;1.10;;;;;;;10.97;64.19;99734.13;10240125;28;20455;-59
2023/12/12 00:07:53;;;;;;;10.18;1.52;;;;;;;11.00;63.67;99741.78;10240441;28;20039;-59
2023/12/12 00:12:55;;;;;;;11.02;1.40;;;;;;;11.06;63.50;99733.81;10240168;28;20356;-58
2023/12/12 00:17:56;;;;;;;13.70;2.88;;;;;;;11.08;63.71;99734.44;10241916;28;20509;-58
2023/12/12 00:22:59;;;;;;;14.77;1.70;;;;;;;11.10;63.58;99731.56;10237069;28;20098;-60
2023/12/12 00:28:00;;;;;;;11.80;1.23;;;;;;;11.16;63.26;99727.22;10238887;28;20077;-60
2023/12/12 00:33:02;;;;;;;15.20;0.98;;;;;;;11.00;63.20;99728.34;10241737;28;20043;-60
2023/12/12 00:38:04;;;;;;;10.07;0.75;;;;;;;10.89;63.41;99735.91;10241252;28;20957;-59
2023/12/12 00:43:05;;;;;;;14.90;1.27;;;;;;;10.72;63.69;99737.19;10238711;28;20511;-59
2023/12/12 00:48:07;;;;;;;9.70;1.58;;;;;;;10.64;63.39;99735.50;10248090;28;20069;-63
2023/12/12 00:53:08;;;;;;;16.65;2.55;;;;;;;10.53;63.66;99730.63;10249250;28;20084;-62
2023/12/12 00:58:09;;;;;;;8.98;0.95;;;;;;;10.44;63.84;99724.53;10248972;28;20575;-63
2023/12/12 01:03:11;;;;;;;7.93;1.40;;;;;;;10.29;64.18;99712.97;10248021;28;20047;-62
2023/12/12 01:08:12;;;;;;;10.65;1.80;;;;;;;10.10;64.26;99717.91;10248549;28;20047;-61
2023/12/12 01:13:14;;;;;;;13.38;1.85;;;;;;;9.95;64.57;99727.03;10247603;28;20035;-62
2023/12/12 01:18:16;;;;;;;8.50;2.03;;;;;;;9.76;65.17;99731.97;10247823;28;20483;-61
2023/12/12 01:23:17;;;;;;;11.90;1.77;;;;;;;9.67;65.26;99720.47;10247005;28;20055;-63
2023/12/12 01:28:19;;;;;;;12.30;2.20;;;;;;;9.62;65.06;99714.00;10263015;28;20047;-64
2023/12/12 01:33:21;;;;;;;13.95;1.13;;;;;;;9.55;65.78;99719.28;10249825;28;20047;-63
2023/12/12 01:38:23;;;;;;;13.10;1.15;;;;;;;9.70;66.12;99724.66;10247412;28;20047;-61
2023/12/12 01:43:26;;;;;;;11.18;1.50;;;;;;;9.82;66.05;99722.31;10244866;28;20150;-62
2023/12/12 01:48:29;;;;;;;11.30;1.27;;;;;;;9.85;66.26;99722.78;10250712;28;20059;-64
2023/12/12 01:53:40;;;;;;;13.48;1.95;;;;;;;9.93;66.12;99725.38;10247031;28;20145;-61
2023/12/12 01:58:45;;;;;;;16.05;1.90;;;;;;;9.98;66.31;99714.06;10252380;28;20055;-60
2023/12/12 02:03:49;;;;;;;15.27;2.15;;;;;;;10.10;66.56;99709.03;10237160;28;20062;-60
2023/12/12 02:08:51;;;;;;;18.58;2.33;;;;;;;10.17;66.71;99701.91;10237608;28;20047;-61
2023/12/12 02:13:53;;;;;;;15.38;1.30;;;;;;;10.20;66.65;99706.06;10238725;28;20138;-61
2023/12/12 02:18:54;;;;;;;13.77;1.17;;;;;;;10.24;66.73;99702.78;10240054;28;20055;-61
2023/12/12 02:23:56;;;;;;;18.13;2.65;;;;;;;10.40;67.03;99706.28;10242294;28;20078;-60
2023/12/12 02:28:57;;;;;;;14.30;1.98;;;;;;;10.52;66.81;99702.94;10240718;28;20508;-60
2023/12/12 02:33:59;;;;;;;17.50;3.08;;;;;;;10.53;66.80;99706.44;10237314;28;20062;-59
2023/12/12 02:39:01;;;;;;;13.60;1.92;;;;;;;10.51;66.80;99695.03;10238199;28;20061;-60
2023/12/12 02:44:04;;;;;;;15.18;1.77;;;;;;;10.54;67.08;99693.81;10237144;28;20043;-60
2023/12/12 02:49:06;;;;;;;13.13;1.98;;;;;;;10.57;66.81;99698.81;10238410;28;20066;-60
2023/12/12 02:54:08;;;;;;;15.52;2.35;;;;;;;10.56;67.03;99697.16;10252587;28;20517;-61
2023/12/12 02:59:09;;;;;;;15.25;1.92;;;;;;;10.51;67.08;99698.56;10241480;28;20138;-60
2023/12/12 03:04:10;;;;;;;18.15;1.48;;;;;;;10.46;67.45;99690.22;10236719;28;20055;-60
2023/12/12 03:09:12;;;;;;;11.07;1.50;;;;;;;10.47;67.25;99691.91;10244502;28;20055;-60
2023/12/12 03:14:14;;;;;;;12.13;1.52;;;;;;;10.52;67.18;99697.56;10245870;28;20047;-59
2023/12/12 03:19:15;;;;;;;8.30;1.52;;;;;;;10.58;67.52;99703.16;10252180;28;20074;-60
2023/12/12 03:24:17;;;;;;;14.88;2.38;;;;;;;10.60;67.24;99698.44;10243634;28;20086;-60
2023/12/12 03:29:18;;;;;;;9.07;1.40;;;;;;;10.57;67.63;99698.81;10245858;28;20466;-60
2023/12/12 03:34:20;;;;;;;10.25;1.77;;;;;;;10.55;67.31;99700.88;10242366;28;20075;-61
2023/12/12 03:39:21;;;;;;;16.75;2.72;;;;;;;10.53;67.82;99703.75;10242706;28;20039;-61
2023/12/12 03:44:23;;;;;;;18.40;2.45;;;;;;;10.52;67.76;99712.81;10244923;28;20055;-60
2023/12/12 03:49:24;;;;;;;11.25;1.20;;;;;;;10.60;67.40;99711.88;10244869;28;20136;-60
2023/12/12 03:54:26;;;;;;;14.80;2.13;;;;;;;10.55;67.28;99708.94;10241590;28;20593;-61
2023/12/12 03:59:27;;;;;;;13.52;1.45;;;;;;;10.59;67.47;99700.28;10246171;28;20379;-61
2023/12/12 04:04:28;;;;;;;11.45;2.13;;;;;;;10.58;67.76;99695.09;10240007;28;20364;-60
2023/12/12 04:09:30;;;;;;;16.75;1.67;;;;;;;10.51;67.66;99700.41;10254807;28;20118;-60
2023/12/12 04:14:32;;;;;;;14.98;1.63;;;;;;;10.48;67.94;99692.72;10242094;28;20149;-60
2023/12/12 04:19:33;;;;;;;17.25;1.35;;;;;;;10.50;67.62;99691.53;10237528;28;20050;-59
2023/12/12 04:24:35;;;;;;;16.42;1.58;;;;;;;10.58;67.63;99687.88;10238625;28;20058;-59
2023/12/12 04:29:37;;;;;;;19.02;1.90;;;;;;;10.65;67.34;99682.56;10238040;28;20098;-60
2023/12/12 04:34:39;;;;;;;14.98;1.88;;;;;;;10.74;67.45;99665.25;10238212;28;20043;-60
2023/12/12 04:39:40;;;;;;;13.57;2.50;;;;;;;10.75;67.05;99666.94;10239562;28;20055;-59
2023/12/12 04:44:42;;;;;;;9.10;1.35;;;;;;;10.75;67.31;99656.19;10238925;28;20051;-59
2023/12/12 04:49:43;;;;;;;14.80;2.20;;;;;;;10.68;67.35;99653.44;10236285;28;20138;-60
2023/12/12 04:54:45;;;;;;;16.13;1.80;;;;;;;10.47;67.96;99648.09;10236413;28;20364;-59
2023/12/12 04:59:46;;;;;;;11.65;1.77;;;;;;;10.32;68.17;99648.97;10238094;28;20058;-60
2023/12/12 05:04:47;;;;;;;15.75;1.85;;;;;;;10.17;68.31;99644.66;10236360;28;20568;-61
2023/12/12 05:09:49;;;;;;;24.23;3.40;;;;;;;10.01;68.68;99645.72;10236341;28;20047;-59
2023/12/12 05:14:51;;;;;;;10.88;1.20;;;;;;;9.85;69.09;99636.03;10236816;28;20042;-59
2023/12/12 05:19:52;;;;;;;9.82;1.15;;;;;;;9.71;68.96;99643.94;10236257;28;20050;-59
2023/12/12 05:24:55;;;;;;;19.35;2.10;;;;;;;9.55;69.12;99641.47;10238860;28;20070;-63
2023/12/12 05:29:56;;;;;;;16.20;2.25;;;;;;;9.45;69.18;99641.75;10243767;28;20487;-62
2023/12/12 05:34:58;;;;;;;11.65;1.27;;;;;;;9.36;69.13;99644.72;10243268;28;20061;-63
2023/12/12 05:39:59;;;;;;;11.70;1.30;;;;;;;9.25;69.69;99644.16;10244638;28;20144;-64
2023/12/12 05:45:02;;;;;;;21.50;4.50;;;;;;;9.13;69.89;99637.59;10245005;28;20517;-62
2023/12/12 05:50:04;;;;;;;18.63;2.45;;;;;;;9.10;70.21;99643.31;10242565;28;20035;-63
2023/12/12 05:55:05;;;;;;;9.40;1.42;;;;;;;9.03;70.38;99627.16;10258170;28;20050;-64
2023/12/12 06:00:08;;;;;;;11.20;2.08;;;;;;;9.00;70.14;99624.00;10246702;28;20578;-61
2023/12/12 06:05:10;;;;;;;18.80;2.00;;;;;;;8.88;70.53;99634.34;10241889;28;20054;-62
2023/12/12 06:10:12;;;;;;;13.63;2.40;;;;;;;8.84;70.66;99639.22;10245035;28;20054;-63
2023/12/12 06:15:13;;;;;;;20.80;2.55;;;;;;;8.85;70.26;99640.06;10242616;28;20558;-61
2023/12/12 06:20:15;;;;;;;17.90;1.83;;;;;;;8.84;70.35;99622.31;10259070;28;20067;-63
2023/12/12 06:25:16;;;;;;;13.18;1.70;;;;;;;8.87;70.52;99621.97;10246207;28;20051;-63
2023/12/12 06:30:18;;;;;;;14.55;2.25;;;;;;;8.91;70.25;99617.91;10248034;28;20059;-62
2023/12/12 06:35:19;;;;;;;12.55;3.45;;;;;;;8.87;70.45;99608.56;10243146;28;20058;-61
2023/12/12 06:40:21;;;;;;;16.90;2.33;;;;;;;8.82;70.48;99611.78;10236152;28;20130;-60
2023/12/12 06:45:22;;;;;;;14.13;2.88;;;;;;;8.74;70.58;99606.50;10232058;28;20047;-60
2023/12/12 06:50:24;;;;;;;13.50;3.38;;;;;;;8.67;70.79;99618.97;10241635;28;20051;-59
2023/12/12 06:55:25;;;;;;;9.57;2.13;;;;;;;8.60;70.94;99621.53;10232408;28;20063;-59
2023/12/12 07:00:27;;;;;;;17.77;1.50;;;;;;;8.60;71.07;99610.00;10234732;28;20058;-59
2023/12/12 07:05:29;;;;;;;22.08;2.40;;;;;;;8.54;71.04;99607.00;10231826;28;20043;-60
2023/12/12 07:10:31;;;;;;;17.05;2.05;;;;;;;8.52;71.34;99601.00;10235547;28;20070;-60
2023/12/12 07:15:33;;;;;;;18.35;2.03;;;;;;;8.56;71.54;99619.41;10315030;23;20375;-82
2023/12/12 07:20:34;;;;;;;15.35;3.63;;;;;;;8.61;71.16;99607.13;10332327;28;20046;-81
2023/12/12 07:25:36;;;;;;;12.85;2.40;;;;;;;8.69;70.70;99603.56;10330580;28;20117;-82
2023/12/12 07:30:38;;;;;;;16.77;1.95;;;;;;;8.66;70.64;99606.59;10331565;28;20092;-79
2023/12/12 07:35:39;;;;;;;13.90;2.13;;;;;;;8.61;70.45;99607.13;10332812;28;20046;-81
2023/12/12 07:40:41;;;;;;;16.88;3.00;;;;;;;8.57;70.47;99599.63;10332614;28;20432;-81
2023/12/12 07:45:45;;;;;;;17.52;3.38;;;;;;;8.47;70.55;99602.56;10327235;28;20069;-80
2023/12/12 07:50:46;;;;;;;15.38;3.40;;;;;;;8.33;70.86;99605.00;10320256;28;20401;-80
2023/12/12 07:55:48;;;;;;;21.10;3.45;;;;;;;8.25;70.99;99601.53;10346781;28;20022;-82
2023/12/12 08:00:50;;;;;;;27.15;2.78;;;;;;;8.27;70.61;99602.19;10370375;28;20050;-83
2023/12/12 08:05:52;;;;;;;10.55;2.30;;;;;;;8.29;70.87;99608.19;10370440;28;20038;-83
2023/12/12 08:10:53;;;;;;;16.45;3.35;;;;;;;8.35;70.92;99607.47;10373808;28;20045;-83
2023/12/12 08:15:55;;;;;;;14.70;3.03;;;;;;;8.46;71.04;99607.09;10342536;28;20033;-84
2023/12/12 08:20:57;;;;;;;14.93;2.75;;;;;;;8.54;71.11;99601.66;10372255;28;20050;-83
2023/12/12 08:25:58;;;;;;;12.77;3.72;;;;;;;8.64;71.22;99611.28;10368096;28;20042;-83
2023/12/12 08:31:00;;;;;;;16.45;3.90;;;;;;;8.85;70.83;99603.38;10363801;28;20049;-82
2023/12/12 08:36:03;;;;;;;16.58;2.85;;;;;;;8.97;70.80;99601.09;10346067;28;20049;-83
2023/12/12 08:41:05;;;;;;;23.50;3.20;;;;;;;9.20;70.74;99601.00;10346443;28;20038;-83
2023/12/12 08:46:11;;;;;;;21.15;4.18;;;;;;;9.32;70.54;99610.22;10345929;28;20039;-84
2023/12/12 08:51:13;;;;;;;19.67;3.03;;;;;;;9.39;70.90;99604.13;10355880;28;20042;-83
2023/12/12 08:56:15;;;;;;;19.65;3.00;;;;;;;9.40;70.88;99605.78;10343260;28;20046;-84
2023/12/12 09:01:17;;;;;;;16.00;3.65;;;;;;;9.40;70.94;99590.53;10357289;28;20054;-83
2023/12/12 09:06:20;;;;;;;12.52;4.00;;;;;;;9.52;71.04;99585.50;10327073;28;20180;-83
2023/12/12 09:11:22;;;;;;;22.52;3.55;;;;;;;9.70;70.79;99582.41;10328104;28;20474;-83
2023/12/12 09:16:23;;;;;;;16.83;3.22;;;;;;;9.98;70.27;99573.63;10321662;28;20149;-85
2023/12/12 09:21:25;;;;;;;23.02;4.82;;;;;;;10.21;69.57;99544.72;10324010;28;20054;-85
2023/12/12 09:26:27;;;;;;;18.33;5.68;;;;;;;10.25;69.71;99550.53;10306995;28;20386;-85
2023/12/12 09:31:29;;;;;;;17.88;4.20;;;;;;;10.08;70.52;99542.72;10324123;28;20047;-85
2023/12/12 09:36:31;;;;;;;20.98;3.85;;;;;;;10.20;70.26;99508.13;10323149;28;20062;-85
2023/12/12 09:41:33;;;;;;;15.35;3.10;;;;;;;10.27;69.70;99487.53;10322702;28;20129;-84
2023/12/12 09:46:35;;;;;;;17.88;4.85;;;;;;;10.29;70.04;99479.28;10320267;28;20129;-84
2023/12/12 09:51:41;;;;;;;20.80;5.07;;;;;;;10.54;69.22;99489.59;10320593;28;20061;-84
2023/12/12 09:56:43;;;;;;;21.98;4.47;;;;;;;10.58;69.47;99491.69;10347271;28;20057;-84
2023/12/12 10:01:47;;;;;;;14.02;4.00;;;;;;;10.48;69.26;99489.34;10358888;28;20031;-83
2023/12/12 10:06:53;;;;;;;13.07;3.65;;;;;;;10.54;69.63;99482.34;10358954;28;20101;-84
2023/12/12 10:11:55;;;;;;;20.52;4.68;;;;;;;10.41;69.93;99466.16;10360357;28;20039;-83
2023/12/12 10:17:02;;;;;;;23.77;4.30;;;;;;;10.47;69.77;99458.13;10366466;28;20061;-86
2023/12/12 10:22:05;;;;;;;19.23;4.57;;;;;;;10.40;70.12;99456.44;10348191;28;20050;-83
2023/12/12 10:27:08;;;;;;;19.75;4.78;;;;;;;10.60;69.49;99448.50;10363609;28;20098;-83
2023/12/12 10:32:13;;;;;;;14.30;3.80;;;;;;;10.90;68.77;99431.06;10357357;28;20066;-85
2023/12/12 10:37:18;;;;;;;28.13;4.82;;;;;;;11.08;68.51;99432.38;10338588;28;20120;-83
2023/12/12 10:42:20;;;;;;;15.98;4.47;;;;;;;11.13;68.84;99426.38;10343266;28;20118;-84
2023/12/12 10:47:23;;;;;;;16.10;5.05;;;;;;;11.22;68.68;99417.09;10359553;28;20046;-84
2023/12/12 10:52:31;;;;;;;16.73;4.70;;;;;;;11.33;68.55;99403.03;10358657;28;20776;-83
2023/12/12 10:57:33;;;;;;;19.63;5.05;;;;;;;11.43;68.26;99389.19;10365601;28;20137;-85
2023/12/12 11:02:35;;;;;;;14.02;3.80;;;;;;;11.31;68.20;99383.59;10353138;28;20584;-85
2023/12/12 11:07:41;;;;;;;16.45;4.45;;;;;;;11.28;68.71;99384.00;10363490;28;20062;-86
2023/12/12 11:12:52;;;;;;;17.02;4.32;;;;;;;11.49;68.19;99365.00;10358358;28;20059;-87
2023/12/12 11:17:54;;;;;;;18.45;4.25;;;;;;;11.77;67.97;99357.72;10311827;28;20105;-88
2023/12/12 11:22:55;;;;;;;13.65;3.40;;;;;;;11.58;68.24;99343.25;10345176;28;20049;-84
2023/12/12 11:27:58;;;;;;;12.75;4.15;;;;;;;11.66;68.01;99334.97;10357226;28;20584;-86
2023/12/12 11:33:01;;;;;;;13.57;4.85;;;;;;;11.74;68.29;99332.03;10373040;28;20026;-86
2023/12/12 11:38:05;;;;;;;18.40;3.97;;;;;;;11.61;68.45;99323.97;10372670;28;20022;-83
2023/12/12 11:43:23;;;;;;;21.02;5.95;;;;;;;11.60;68.21;99317.78;10367627;28;20039;-85
2023/12/12 11:48:26;;;;;;;19.65;3.83;;;;;;;11.79;67.65;99309.88;10373799;28;20078;-85
2023/12/12 11:53:40;;;;;;;24.05;5.63;;;;;;;11.82;67.65;99294.13;10358337;28;20053;-84
2023/12/12 11:58:43;;;;;;;15.27;4.20;;;;;;;11.92;67.37;99293.72;10334866;28;20274;-84
2023/12/12 12:03:44;;;;;;;18.25;4.18;;;;;;;11.96;67.34;99270.72;10344442;23;20042;-69
2023/12/12 12:08:46;;;;;;;21.73;5.20;;;;;;;12.10;67.14;99268.81;10315500;28;20074;-69
2023/12/12 12:13:48;;;;;;;16.08;5.05;;;;;;;12.17;66.81;99253.47;10302192;28;20057;-68
2023/12/12 12:18:49;;;;;;;22.60;4.38;;;;;;;12.17;67.03;99239.16;10306758;28;20122;-69
2023/12/12 12:23:54;;;;;;;13.00;4.20;;;;;;;12.12;67.13;99229.00;10305079;28;20482;-69
2023/12/12 12:28:56;;;;;;;17.52;5.00;;;;;;;12.10;66.97;99231.94;10283487;28;20051;-69
2023/12/12 12:33:57;;;;;;;20.98;4.75;;;;;;;12.12;67.07;99201.25;10262799;28;20042;-72
2023/12/12 12:39:04;;;;;;;13.38;3.92;;;;;;;12.00;67.29;99199.22;10278697;28;20051;-70
2023/12/12 12:44:06;;;;;;;18.07;3.63;;;;;;;11.93;67.58;99194.91;10270461;28;20127;-70
2023/12/12 12:49:07;;;;;;;18.35;4.70;;;;;;;11.87;68.02;99191.19;10272261;28;20631;-68
2023/12/12 12:54:09;;;;;;;15.27;5.50;;;;;;;11.86;67.97;99178.75;10280352;28;20046;-69
2023/12/12 12:59:13;;;;;;;23.98;4.47;;;;;;;11.79;68.46;99183.31;10258814;28;20110;-69
2023/12/12 13:04:15;;;;;;;25.20;5.47;;;;;;;11.82;68.54;99159.50;10284840;28;20081;-67
2023/12/12 13:09:17;;;;;;;18.65;5.80;;;;;;;11.78;68.77;99168.22;10269179;28;20046;-68
2023/12/12 13:14:19;;;;;;;13.85;3.90;;;;;;;11.29;69.22;99165.91;10269715;28;20051;-67
2023/12/12 13:19:20;;;;;;;22.83;5.00;;;;;;;11.10;70.34;99156.81;10267625;28;20066;-67
2023/12/12 13:24:23;;;;;;;27.20;6.82;;;;;;;11.15;70.24;99156.16;10267763;28;20162;-68
2023/12/12 13:29:24;;;;;;;16.10;4.55;;;;;;;11.16;70.12;99151.63;10278471;28;20059;-68
2023/12/12 13:34:26;;;;;;;19.80;5.00;;;;;;;10.79;71.13;99162.00;10282803;28;20047;-67
2023/12/12 13:39:27;;;;;;;34.10;8.57;;;;;;;10.07;73.03;99175.91;10247445;28;20072;-65
2023/12/12 13:44:29;;;;;;;22.92;6.78;;;;;;;10.09;73.41;99152.38;10235390;28;20047;-67
2023/12/12 13:49:30;;;;;;;22.38;5.95;;;;;;;10.34;72.59;99121.47;10260695;28;20061;-67
2023/12/12 13:54:31;;;;;;;21.40;5.60;;;;;;;10.49;72.56;99112.16;10243383;28;20097;-68
2023/12/12 13:59:33;;;;;;;29.42;6.45;;;;;;;10.52;73.36;99110.91;10248973;28;20077;-68
2023/12/12 14:04:34;;;;;;;18.95;4.90;;;;;;;10.56;73.02;99106.78;10251767;28;20047;-68
2023/12/12 14:09:36;;;;;;;19.05;5.82;;;;;;;10.50;73.39;99111.16;10251434;28;20054;-68
2023/12/12 14:14:37;;;;;;;27.58;6.65;;;;;;;10.15;74.75;99114.97;10254152;28;20058;-68
2023/12/12 14:19:40;;;;;;;22.38;6.25;;;;;;;10.00;75.31;99102.56;10257149;28;20142;-69
2023/12/12 14:24:42;;;;;;;21.88;6.10;;;;;;;10.27;74.72;99105.31;10251061;28;20055;-69
2023/12/12 14:29:44;;;;;;;23.58;6.95;;;;;;;10.27;74.88;99108.00;10247613;28;20049;-68
2023/12/12 14:34:45;;;;;;;26.45;6.90;;;;;;;10.19;75.19;99089.38;10241231;28;20042;-68
2023/12/12 14:39:47;;;;;;;26.88;9.23;;;;;;;10.32;75.18;99081.38;10244154;28;20047;-68
2023/12/12 14:44:50;;;;;;;19.95;8.18;;;;;;;10.42;74.88;99081.78;10243409;28;20044;-68
2023/12/12 14:49:52;;;;;;;17.73;5.75;;;;;;;10.19;75.75;99079.47;10243691;28;20051;-68
2023/12/12 14:54:53;;;;;;;30.40;6.40;;;;;;;10.07;76.64;99084.63;10243057;28;20133;-65
2023/12/12 14:59:55;;;;;;;25.63;7.18;;;;;;;10.05;76.31;99078.63;10241690;28;20063;-66
2023/12/12 15:04:56;;;;;;;19.45;6.05;;;;;;;10.03;76.54;99066.44;10242287;28;20550;-67
2023/12/12 15:09:58;;;;;;;20.40;6.35;;;;;;;10.20;76.51;99061.50;10237453;28;20054;-67
2023/12/12 15:14:59;;;;;;;23.48;8.88;;;;;;;10.28;76.33;99050.56;10237920;28;20049;-67
2023/12/12 15:20:01;;;;;;;24.10;7.80;;;;;;;10.30;76.17;99030.53;10238655;28;20043;-67
2023/12/12 15:25:05;;;;;;;26.88;7.80;;;;;;;10.41;76.29;99029.09;10236516;28;20039;-66
2023/12/12 15:30:07;;;;;;;24.15;10.07;;;;;;;10.43;76.42;99018.16;10232548;28;20075;-66
2023/12/12 15:35:10;;;;;;;23.73;9.55;;;;;;;10.30;76.60;99021.66;10237991;28;20527;-67
2023/12/12 15:40:12;;;;;;;24.05;8.65;;;;;;;10.37;76.76;99013.59;10253523;28;20051;-67
2023/12/12 15:45:14;;;;;;;22.98;6.63;;;;;;;10.27;76.74;99014.00;10239111;28;20070;-68
2023/12/12 15:50:15;;;;;;;24.95;7.63;;;;;;;10.34;76.87;99001.41;10238902;28;20066;-68
2023/12/12 15:55:17;;;;;;;19.58;6.95;;;;;;;10.44;76.83;98996.44;10241714;28;20454;-67
2023/12/12 16:00:21;;;;;;;20.65;6.97;;;;;;;10.52;76.41;98981.97;10244494;28;20054;-66
2023/12/12 16:05:22;;;;;;;18.98;6.90;;;;;;;10.57;76.38;98967.91;10238646;28;20050;-69
2023/12/12 16:10:24;;;;;;;17.17;5.82;;;;;;;10.66;76.60;98967.47;10232807;28;20173;-70
2023/12/12 16:15:25;;;;;;;18.55;6.20;;;;;;;10.61;76.58;98953.84;10236539;28;20067;-71
2023/12/12 16:20:28;;;;;;;14.55;6.18;;;;;;;10.62;76.85;98951.97;10237485;28;20051;-60
2023/12/12 16:25:30;;;;;;;15.68;7.70;;;;;;;10.69;76.50;98945.53;10238561;28;20618;-61
2023/12/12 16:30:31;;;;;;;16.83;6.82;;;;;;;10.63;76.94;98949.06;10237925;28;20053;-60
2023/12/12 16:35:33;;;;;;;24.42;8.10;;;;;;;10.71;76.38;98946.16;10238834;28;20043;-60
2023/12/12 16:40:39;;;;;;;15.48;6.03;;;;;;;10.66;76.65;98953.19;10239963;28;20557;-61
2023/12/12 16:45:41;;;;;;;20.08;8.15;;;;;;;10.58;77.15;98940.00;10238741;28;20043;-61
2023/12/12 16:50:42;;;;;;;31.13;7.55;;;;;;;10.72;76.65;98928.16;10242044;28;20054;-60
2023/12/12 16:55:44;;;;;;;22.10;7.78;;;;;;;10.78;76.35;98911.22;10238149;28;20047;-60
2023/12/12 17:00:46;;;;;;;17.27;7.45;;;;;;;10.81;76.85;98924.19;10238447;28;20049;-60
2023/12/12 17:05:48;;;;;;;19.48;6.82;;;;;;;10.82;76.85;98917.81;10238349;28;20047;-60
2023/12/12 17:10:49;;;;;;;29.38;8.88;;;;;;;10.85;76.62;98932.66;10238751;28;20059;-61
2023/12/12 17:15:56;;;;;;;28.13;7.60;;;;;;;10.67;77.21;98925.28;10238018;28;20050;-59
2023/12/12 17:20:59;;;;;;;39.25;9.55;;;;;;;10.61;77.55;98924.28;10240275;28;20043;-59
2023/12/12 17:26:01;;;;;;;31.38;7.13;;;;;;;10.64;76.96;98931.09;10240289;28;20051;-60
2023/12/12 17:31:03;;;;;;;35.55;8.13;;;;;;;10.61;77.08;98918.91;10239163;28;20483;-59
2023/12/12 17:36:06;;;;;;;32.83;8.68;;;;;;;10.74;76.84;98912.63;10239062;28;20529;-59
2023/12/12 17:41:12;;;;;;;38.55;8.35;;;;;;;10.73;76.85;98921.75;10240110;28;20058;-60
2023/12/12 17:46:14;;;;;;;34.70;9.93;;;;;;;10.71;77.42;98911.22;10228005;28;20042;-60
2023/12/12 17:51:15;;;;;;;28.85;9.38;;;;;;;10.84;76.70;98914.88;10239389;28;20490;-60
2023/12/12 17:56:17;;;;;;;37.88;10.88;;;;;;;10.88;77.04;98908.88;10239029;28;20046;-60
2023/12/12 18:01:19;;;;;;;38.55;10.00;;;;;;;10.95;76.56;98890.03;10237475;28;20051;-60
2023/12/12 18:06:20;;;;;;;37.63;10.40;;;;;;;10.97;76.80;98882.56;10240134;28;20489;-60
2023/12/12 18:11:22;;;;;;;40.97;10.45;;;;;;;11.01;76.48;98878.41;10240309;28;20076;-60
2023/12/12 18:16:23;;;;;;;37.33;9.57;;;;;;;11.00;76.76;98878.59;10237913;28;20078;-60
2023/12/12 18:21:25;;;;;;;30.13;9.20;;;;;;;10.97;76.44;98858.38;10239086;28;20142;-61
2023/12/12 18:26:29;;;;;;;32.30;9.00;;;;;;;11.01;76.71;98854.19;10238659;28;20051;-61
2023/12/12 18:31:31;;;;;;;39.45;9.55;;;;;;;11.02;76.70;98845.13;10240431;28;20047;-59
2023/12/12 18:36:33;;;;;;;32.30;8.50;;;;;;;11.03;76.53;98829.78;10237398;28;20057;-60
2023/12/12 18:41:37;;;;;;;29.95;9.43;;;;;;;11.03;76.34;98830.59;10237322;28;20207;-60
2023/12/12 18:46:40;;;;;;;39.65;11.60;;;;;;;10.93;76.86;98816.81;10236707;28;20050;-61
2023/12/12 18:51:42;;;;;;;35.95;11.68;;;;;;;11.00;76.56;98838.28;10239031;28;20086;-60
2023/12/12 18:56:44;;;;;;;38.60;12.85;;;;;;;10.84;77.27;98840.47;10238586;28;20050;-60
2023/12/12 19:01:45;;;;;;;37.58;11.15;;;;;;;10.88;76.83;98828.22;10233150;28;20138;-60
2023/12/12 19:07:00;;;;;;;37.00;10.82;;;;;;;10.91;77.11;98830.47;10234354;28;20043;-60
2023/12/12 19:12:03;;;;;;;51.92;16.17;;;;;;;10.93;76.97;98826.75;10233692;28;20035;-60
2023/12/12 19:17:05;;;;;;;32.17;11.85;;;;;;;10.95;76.73;98819.31;10238075;28;20054;-59
2023/12/12 19:22:06;;;;;;;31.15;11.32;;;;;;;10.98;76.67;98816.16;10236562;28;20682;-61
2023/12/12 19:27:08;;;;;;;45.00;14.07;;;;;;;10.96;77.14;98799.44;10236594;28;20051;-60
2023/12/12 19:32:09;;;;;;;38.30;12.32;;;;;;;11.03;76.62;98784.09;10239597;28;20043;-59
2023/12/12 19:37:10;;;;;;;32.15;10.82;;;;;;;11.06;76.98;98775.59;10235419;28;20043;-60
2023/12/12 19:42:13;;;;;;;38.90;11.50;;;;;;;11.07;76.87;98783.41;10231584;28;20118;-59
2023/12/12 19:47:14;;;;;;;31.95;10.38;;;;;;;11.00;77.34;98773.75;10239098;28;20047;-64
2023/12/12 19:52:15;;;;;;;35.35;10.75;;;;;;;10.99;77.19;98783.69;10240019;28;20050;-62
2023/12/12 19:57:17;;;;;;;37.83;11.60;;;;;;;10.68;78.14;98792.56;10243409;28;20098;-62
2023/12/12 20:02:19;;;;;;;47.97;14.60;;;;;;;10.60;78.11;98796.31;10236626;28;20035;-60
2023/12/12 20:07:20;;;;;;;51.28;16.58;;;;;;;10.39;79.16;98793.97;10235217;28;20105;-61
2023/12/12 20:12:22;;;;;;;27.70;9.38;;;;;;;10.16;80.12;98822.09;10237281;28;20047;-64
2023/12/12 20:17:24;;;;;;;33.17;7.72;;;;;;;10.01;80.95;98808.09;10235968;28;20047;-60
2023/12/12 20:22:25;;;;;;;18.00;6.20;;;;;;;10.25;80.41;98809.28;10234854;28;20039;-61
2023/12/12 20:27:29;;;;;;;15.80;4.90;;;;;;;10.38;80.71;98797.69;10227987;28;20098;-61
2023/12/12 20:32:32;;;;;;;16.50;6.45;;;;;;;10.60;80.33;98779.38;10253355;28;20047;-61
2023/12/12 20:37:33;;;;;;;26.73;7.72;;;;;;;10.79;79.56;98765.00;10234656;28;20111;-62
2023/12/12 20:42:35;;;;;;;22.50;5.88;;;;;;;10.86;79.40;98746.13;10235639;28;20063;-62
2023/12/12 20:47:37;;;;;;;14.50;5.35;;;;;;;10.94;79.25;98731.59;10238083;28;20047;-61
2023/12/12 20:52:39;;;;;;;14.00;4.90;;;;;;;10.96;79.22;98705.31;10239270;28;20106;-62
2023/12/12 20:57:41;;;;;;;13.18;4.22;;;;;;;10.92;79.63;98715.72;10235743;28;20114;-61
2023/12/12 21:02:43;;;;;;;15.95;6.07;;;;;;;10.71;79.86;98725.78;10232226;28;20052;-61
2023/12/12 21:07:44;;;;;;;28.80;10.20;;;;;;;10.54;80.27;98726.50;10241429;28;20065;-60
2023/12/12 21:12:46;;;;;;;25.20;8.75;;;;;;;10.30;80.78;98745.03;10238799;28;20465;-60
2023/12/12 21:17:49;;;;;;;14.10;4.93;;;;;;;10.09;81.25;98754.16;10239991;28;20039;-62
2023/12/12 21:22:51;;;;;;;14.45;4.82;;;;;;;10.00;81.46;98758.13;10240849;28;20036;-62
2023/12/12 21:27:53;;;;;;;17.50;4.75;;;;;;;10.06;81.12;98765.34;10237184;28;20048;-62
2023/12/12 21:32:54;;;;;;;15.20;4.47;;;;;;;10.09;81.17;98756.84;10238097;28;20046;-62
2023/12/12 21:37:56;;;;;;;13.57;4.82;;;;;;;10.17;81.07;98761.16;10253428;28;20047;-61
2023/12/12 21:42:57;;;;;;;11.45;4.88;;;;;;;10.17;81.07;98747.72;10236716;28;20074;-62
2023/12/12 21:47:58;;;;;;;12.55;4.32;;;;;;;10.14;80.81;98757.03;10238569;28;20142;-61
2023/12/12 21:53:03;;;;;;;11.30;3.88;;;;;;;10.07;81.19;98753.56;10238233;28;20083;-62
2023/12/12 21:58:04;;;;;;;13.30;4.78;;;;;;;10.06;80.94;98747.38;10241843;28;20051;-66
2023/12/12 22:03:06;;;;;;;9.82;4.22;;;;;;;9.98;81.15;98744.09;10238241;28;20055;-66
2023/12/12 22:08:07;;;;;;;13.82;4.32;;;;;;;9.92;81.13;98745.78;10238405;28;20039;-66
2023/12/12 22:13:13;;;;;;;9.27;4.25;;;;;;;9.85;81.13;98751.16;10232051;28;20048;-66
2023/12/12 22:18:15;;;;;;;13.32;4.28;;;;;;;9.77;81.34;98745.19;10229029;28;20059;-65
2023/12/12 22:23:16;;;;;;;11.20;3.58;;;;;;;9.70;81.35;98751.41;10236372;28;20499;-65
2023/12/12 22:28:18;;;;;;;10.05;4.00;;;;;;;9.68;81.56;98750.78;10237596;28;20047;-65
2023/12/12 22:33:19;;;;;;;16.73;4.43;;;;;;;9.64;81.32;98743.38;10239352;28;20055;-66
2023/12/12 22:38:22;;;;;;;12.10;4.57;;;;;;;9.61;80.97;98744.59;10237625;28;20175;-65
2023/12/12 22:43:27;;;;;;;13.02;4.07;;;;;;;9.58;81.31;98747.72;10245184;28;20043;-66
2023/12/12 22:48:28;;;;;;;14.38;4.78;;;;;;;9.58;81.16;98762.97;10235746;28;20055;-66
2023/12/12 22:53:30;;;;;;;16.52;5.00;;;;;;;9.63;81.31;98777.41;10255400;28;20114;-65
2023/12/12 22:58:31;;;;;;;13.23;5.47;;;;;;;9.77;80.97;98772.03;10234428;28;20063;-66
2023/12/12 23:03:33;;;;;;;18.58;6.00;;;;;;;9.83;81.24;98769.31;10236830;28;20461;-65
2023/12/12 23:08:35;;;;;;;24.42;7.28;;;;;;;9.88;81.19;98772.19;10236639;28;20094;-65
2023/12/12 23:13:36;;;;;;;19.63;7.63;;;;;;;9.94;81.10;98770.53;10234226;28;20047;-65